createdAt,value
2023-01-23T00:03:09.574Z,30.1
2023-01-23T00:08:32.543Z,31.7
2023-01-23T00:13:56.453Z,33.6
2023-01-23T00:19:19.232Z,31.6
2023-01-23T00:24:45.434Z,30.4
2023-01-23T00:30:08.180Z,29
2023-01-23T00:35:31.722Z,33.6
2023-01-23T00:40:39.076Z,32.4
2023-01-23T00:46:08.045Z,30.9
2023-01-23T00:51:15.578Z,30
2023-01-23T00:56:38.329Z,31.1
2023-01-23T01:02:01.914Z,34.3
2023-01-23T01:07:25.577Z,31.8
2023-01-23T01:12:02.730Z,30.7
2023-01-23T01:17:24.677Z,29.9
2023-01-23T01:22:48.092Z,32.3
2023-01-23T01:28:10.951Z,33.6
2023-01-23T01:33:35.191Z,31.3
2023-01-23T01:38:58.227Z,30.3
2023-01-23T01:44:21.019Z,28.8
2023-01-23T01:49:44.374Z,33.6
2023-01-23T01:55:07.206Z,32.4
2023-01-23T01:59:58.603Z,30.9
2023-01-23T02:05:06.301Z,30.1
2023-01-23T02:10:14.111Z,30
2023-01-23T02:15:37.310Z,33.9
2023-01-23T02:21:00.592Z,32.1
2023-01-23T02:26:09.982Z,30.8
2023-01-23T02:31:33.862Z,29.9
2023-01-23T02:36:57.306Z,31.1
2023-01-23T02:42:20.619Z,33.9
2023-01-23T02:47:28.765Z,31.7
2023-01-23T02:52:52.405Z,30.6
2023-01-23T02:58:14.896Z,29.8
2023-01-23T03:03:38.103Z,31.9
2023-01-23T03:09:01.929Z,33.6
2023-01-23T03:14:24.080Z,31.4
2023-01-23T03:19:45.143Z,30.4
2023-01-23T03:30:00.653Z,32.6
2023-01-23T03:35:24.280Z,33.2
2023-01-23T03:40:47.576Z,31.2
2023-01-23T03:45:39.662Z,30.3
2023-01-23T03:50:46.916Z,28.7
2023-01-23T03:55:38.544Z,33.1
2023-01-23T04:00:47.021Z,33.2
2023-01-23T04:05:54.913Z,31.3
2023-01-23T04:11:08.547Z,30.3
2023-01-23T04:16:01.337Z,29.4
2023-01-23T04:21:23.721Z,32.4
2023-01-23T04:26:45.630Z,33.3
2023-01-23T04:32:10.560Z,31.3
2023-01-23T04:37:33.841Z,30.3
2023-01-23T04:42:57.698Z,28.4
2023-01-23T04:48:21.575Z,33.3
2023-01-23T04:53:28.853Z,32.6
2023-01-23T04:58:35.496Z,31
2023-01-23T05:04:00.574Z,30.1
2023-01-23T05:09:25.551Z,28.6
2023-01-23T05:14:48.466Z,33.5
2023-01-23T05:19:57.465Z,32.4
2023-01-23T05:25:05.316Z,31
2023-01-23T05:30:11.443Z,30.1
2023-01-23T05:35:20.182Z,29
2023-01-23T05:40:46.281Z,33.5
2023-01-23T05:46:10.286Z,32.3
2023-01-23T05:51:03.198Z,30.9
2023-01-23T05:56:26.970Z,30
2023-01-23T06:01:36.422Z,29.9
2023-01-23T06:06:29.302Z,33.8
2023-01-23T06:11:52.318Z,32.4
2023-01-23T06:17:02.166Z,30.9
2023-01-23T06:22:11.060Z,30
2023-01-23T06:27:34.284Z,29.3
2023-01-23T06:32:57.810Z,33.7
2023-01-23T06:38:25.098Z,32.2
2023-01-23T06:43:35.154Z,30.9
2023-01-23T06:48:58.264Z,29.9
2023-01-23T06:54:22.454Z,30.1
2023-01-23T06:59:45.598Z,33.9
2023-01-23T07:05:08.648Z,32
2023-01-23T07:10:32.207Z,30.7
2023-01-23T07:15:57.788Z,29.8
2023-01-23T07:21:20.226Z,31.3
2023-01-23T07:26:28.319Z,33.8
2023-01-23T07:31:52.205Z,31.7
2023-01-23T07:37:16.294Z,30.6
2023-01-23T07:42:40.308Z,29.7
2023-01-23T07:48:03.383Z,31.8
2023-01-23T07:53:29.517Z,33.6
2023-01-23T07:58:54.780Z,31.5
2023-01-23T08:04:21.322Z,30.4
2023-01-23T08:09:37.981Z,29.5
2023-01-23T08:15:01.626Z,32.4
2023-01-23T08:20:09.571Z,33.4
2023-01-23T08:25:31.877Z,31.3
2023-01-23T08:30:40.013Z,30.3
2023-01-23T08:35:48.312Z,29.5
2023-01-23T08:41:12.030Z,32.3
2023-01-23T08:46:35.962Z,33.3
2023-01-23T08:52:00.368Z,31.3
2023-01-23T08:57:24.650Z,30.3
2023-01-23T09:02:49.070Z,28.9
2023-01-23T09:07:56.611Z,33
2023-01-23T09:13:04.630Z,32.9
2023-01-23T09:18:29.271Z,31.1
2023-01-23T09:23:53.013Z,30.1
2023-01-23T09:29:16.259Z,28.3
2023-01-23T09:34:40.707Z,33.2
2023-01-23T09:40:19.863Z,32.6
2023-01-23T09:45:29.295Z,30.9
2023-01-23T09:50:54.312Z,29.9
2023-01-23T09:56:01.820Z,29.6
2023-01-23T10:01:24.272Z,33.6
2023-01-23T10:06:49.373Z,32.2
2023-01-23T10:12:15.867Z,30.8
2023-01-23T10:17:59.956Z,29.9
2023-01-23T10:23:31.545Z,30.6
2023-01-23T10:28:57.094Z,34.1
2023-01-23T10:34:21.848Z,31.6
2023-01-23T10:39:59.004Z,30.4
2023-01-23T10:45:24.581Z,29.6
2023-01-23T10:51:04.606Z,32
2023-01-23T10:56:47.649Z,33.3
2023-01-23T11:02:20.120Z,30.8
2023-01-23T11:07:34.938Z,29.8
2023-01-23T11:13:00.686Z,28.9
2023-01-23T11:18:24.572Z,32.4
2023-01-23T11:23:47.297Z,33.2
2023-01-23T11:29:26.728Z,30.8
2023-01-23T11:34:51.953Z,29.8
2023-01-23T11:40:21.691Z,28.4
2023-01-23T11:45:55.125Z,33
2023-01-23T11:51:28.060Z,32.7
2023-01-23T11:56:46.920Z,30.7
2023-01-23T12:02:18.830Z,29.8
2023-01-23T12:08:01.061Z,28
2023-01-23T12:13:23.605Z,33.4
2023-01-23T12:18:48.354Z,32.3
2023-01-23T12:23:57.674Z,30.6
2023-01-23T12:29:20.139Z,29.7
2023-01-23T12:34:44.936Z,28.1
2023-01-23T12:40:36.433Z,33.3
2023-01-23T12:45:58.946Z,32.3
2023-01-23T12:51:24.615Z,30.8
2023-01-23T13:02:37.073Z,29.6
2023-01-23T13:08:15.542Z,33.9
2023-01-23T13:13:59.673Z,31.6
2023-01-23T13:19:52.201Z,30.1
2023-01-23T13:25:21.922Z,29.3
2023-01-23T13:30:59.241Z,31.3
2023-01-23T13:36:30.986Z,33.5
2023-01-23T13:42:05.563Z,31.4
2023-01-23T13:47:38.181Z,30.3
2023-01-23T13:52:45.967Z,29.4
2023-01-23T13:58:10.201Z,31.9
2023-01-23T14:03:32.790Z,33.4
2023-01-23T14:08:55.367Z,31
2023-01-23T14:14:20.021Z,29.9
2023-01-23T14:19:43.623Z,29.1
2023-01-23T14:25:19.520Z,31.9
2023-01-23T14:31:00.715Z,33.4
2023-01-23T14:36:33.692Z,31.2
2023-01-23T14:42:19.647Z,30.1
2023-01-23T14:47:59.814Z,29.1
2023-01-23T14:53:28.018Z,32.4
2023-01-23T14:59:10.591Z,33.3
2023-01-23T15:04:45.951Z,30.6
2023-01-23T15:10:09.839Z,29.6
2023-01-23T15:15:32.729Z,28.8
2023-01-23T15:20:57.374Z,31.4
2023-01-23T15:26:33.711Z,33.7
2023-01-23T15:31:57.137Z,31.4
2023-01-23T15:37:22.525Z,30.3
2023-01-23T15:42:58.607Z,29.5
2023-01-23T15:48:23.559Z,28.6
2023-01-23T15:53:55.154Z,27.9
2023-01-23T15:59:31.903Z,27.3
2023-01-23T16:05:11.654Z,28.8
2023-01-23T16:10:43.862Z,32.8
2023-01-23T16:16:08.177Z,35.9
2023-01-23T16:21:27.600Z,38
2023-01-23T16:27:42.003Z,39.2
2023-01-23T16:33:07.395Z,39.5
2023-01-23T16:38:30.164Z,39.6
2023-01-23T16:43:55.186Z,39.6
2023-01-23T16:49:25.983Z,38.8
2023-01-23T16:55:10.067Z,36.9
2023-01-23T17:00:50.660Z,37.9
2023-01-23T17:06:15.150Z,37.3
2023-01-23T17:11:37.039Z,37.3
2023-01-23T17:16:43.687Z,36.8
2023-01-23T17:21:36.222Z,36.8
2023-01-23T17:27:09.316Z,36.6
2023-01-23T17:32:46.708Z,35.8
2023-01-23T17:38:16.707Z,34.6
2023-01-23T17:43:39.958Z,34.1
2023-01-23T17:49:05.905Z,33.8
2023-01-23T17:54:15.435Z,34.2
2023-01-23T17:59:39.486Z,36
2023-01-23T18:05:05.756Z,37.9
2023-01-23T18:10:25.756Z,36.9
2023-01-23T18:15:52.897Z,36.9
2023-01-23T18:21:10.052Z,38
2023-01-23T18:26:07.071Z,37.4
2023-01-23T18:31:03.217Z,38.3
2023-01-23T18:36:21.341Z,38.4
2023-01-23T18:41:40.085Z,39.1
2023-01-23T18:47:13.178Z,39.1
2023-01-23T18:53:20.981Z,39.4
2023-01-23T18:59:06.406Z,39.9
2023-01-23T19:04:50.434Z,39.7
2023-01-23T19:10:32.457Z,38.7
2023-01-23T19:15:58.549Z,38.9
2023-01-23T19:21:55.242Z,37.8
2023-01-23T19:27:35.363Z,37.6
2023-01-23T19:33:36.786Z,37.4
2023-01-23T19:39:01.210Z,37.3
2023-01-23T19:45:03.026Z,39
2023-01-23T19:50:41.469Z,40.3
2023-01-23T19:56:04.337Z,40.4
2023-01-23T20:01:10.957Z,40.5
2023-01-23T20:06:26.813Z,40.3
2023-01-23T20:11:39.676Z,39.7
2023-01-23T20:17:10.148Z,39.7
2023-01-23T20:22:41.180Z,39.8
2023-01-23T20:28:09.912Z,39.3
2023-01-23T20:33:25.887Z,38.8
2023-01-23T20:38:52.914Z,37.4
2023-01-23T20:44:17.395Z,38.2
2023-01-23T20:49:43.534Z,36.6
2023-01-23T20:55:08.076Z,35.8
2023-01-23T21:00:36.380Z,35.1
2023-01-23T21:05:47.776Z,34.5
2023-01-23T21:10:25.586Z,33.9
2023-01-23T21:15:33.622Z,33.4
2023-01-23T21:20:58.625Z,32.8
2023-01-23T21:26:23.324Z,32.2
2023-01-23T21:31:46.311Z,31.8
2023-01-23T21:37:09.373Z,31.9
2023-01-23T21:42:18.050Z,31.8
2023-01-23T21:47:40.460Z,31.7
2023-01-23T21:52:47.883Z,31.5
2023-01-23T21:57:56.029Z,31.3
2023-01-23T22:03:18.884Z,30.8
2023-01-23T22:08:43.167Z,30.4
2023-01-23T22:14:08.682Z,29.8
2023-01-23T22:19:51.098Z,28.6
2023-01-23T22:25:15.007Z,28.5
2023-01-23T22:30:38.890Z,28.1
2023-01-23T22:36:12.271Z,28.1
2023-01-23T22:41:35.720Z,27.7
2023-01-23T22:46:59.852Z,27.1
2023-01-23T22:52:25.125Z,26.6
2023-01-23T22:57:48.969Z,26
2023-01-23T23:02:57.503Z,25.6
2023-01-23T23:08:20.664Z,25.2
2023-01-23T23:13:12.811Z,24.9
2023-01-23T23:18:05.044Z,24.6
2023-01-23T23:23:12.283Z,24.4
2023-01-23T23:28:20.517Z,24.3
2023-01-23T23:33:28.577Z,24.1
2023-01-23T23:38:51.854Z,24
2023-01-23T23:44:15.115Z,23.9
2023-01-23T23:49:38.774Z,23.8
2023-01-23T23:54:45.940Z,23.6
